Aérodrome :
LOGIN :

S'inscrire | Disclaimer

   EN    FR    IT 

 










Légende :    VFR   VFR Marginal   IFR   IFR Intensif   IFR Très Intensif
Visi : 
Plafond : 
>= 8 km
>= 3000ft
5 à 8 km
1000 à 3000 ft
1500m à 5 km
500 à 1000 ft
800 à 1500m
200 à 500 ft
< 800m
< 200 ft
Symboles :   Orages  Brouillard  Fortes neiges  Fortes précipitations  Vent > 20 kt
SIGMETs :   Divers  Orages  Givrage  Turbulence  Onde Orograph.  Cendres Volcan.






- Altitude de l'aérodrome : 604 ft
- Code IATA : LCJ


EPLL - Lodz

DERNIER METAR :
  • 070230Z 26003KT 180V340 9999 -SHRA BKN046CB 14/14 Q1009

METARs EXPIRÉS :
  • 070200Z 23004KT 180V250 9999 BKN047 14/14 Q1009
  • 070130Z VRB01KT 9999 FEW050CB 13/13 Q1008
  • 070100Z 09003KT CAVOK 14/14 Q1008
  • 070030Z VRB02KT 9999 MIFG NSC 14/14 Q1008
  • 070000Z 09003KT 9999 MIFG NSC 13/13 Q1008

TAF TAF EPLL
Valide du 07 à 00h jusqu'au 08 à 00h UTC


062330Z 0700/0724 VRB02KT CAVOK
PROB40
TEMPO 0702/0706 SHRA BKN030CB
TEMPO 0710/0721 -SHRA BKN030CB
PROB40
TEMPO 0713/0720 VRB15G30KT 4000 TSRA BKN020CB
BECMG 0721/0724 3000 BR



MET'MAP, la Météo Aéronautique d'un coup d'oeil ! - Copyright ORBIFLY Décembre 2007 - Disclaimer

ORBIFLY MET'MAP TEAM :

Programmation & Développement : Alexandra Zaïnal
Sur une idée originale de : Baudouin d'Aumeries
Assistance à la programmation : Marc-Olivier Méhu
Soutien technique & logistique : Manuel Goepfert

Contact : metmap@orbifly.com




SOURCES & CREDITS :

   NOAA